Allentown, New York
Current Conditions -  °F | °C
As of 8:23 AM on Wednesday 22 Oct 2014 (Local Time) from KELZ Reporting Station
Moderate Fog Moderate Fog  
Wind Chill: 38°   Ceiling: 100
Heat Index: 42°   Visibility: 0.25mi
Dew Point: 40°   Wind: 7mph
Humidity: 92%   Direction: 10°N
Pressure: 30.12"   Gusts: NA
Location:  42.08°N, 78.06°W
Report Text: KELZ 221223Z AUTO 01006KT 1/4SM FG VV001 06/04 A3012 RMK AO2 T00560044
Loading
Personal Weather Stations






























Interactive Weather Map
Tropical Storm Tracking
New forecast layout! Learn more

10-Day Weather Forecast

Advertisements
Track Severe Weather on mobile